createdAt,value
2019-04-16T00:00:02.583Z,0
2019-04-16T00:00:43.356Z,0
2019-04-16T00:01:23.341Z,0
2019-04-16T00:02:03.809Z,0
2019-04-16T00:02:44.023Z,0
2019-04-16T00:03:24.404Z,0
2019-04-16T00:04:04.781Z,0
2019-04-16T00:04:45.172Z,0
2019-04-16T00:05:27.685Z,0
2019-04-16T00:06:06.050Z,0
2019-04-16T00:06:46.405Z,0
2019-04-16T00:07:26.849Z,0
2019-04-16T00:08:14.107Z,0
2019-04-16T00:08:47.599Z,0
2019-04-16T00:09:27.985Z,0
2019-04-16T00:10:08.403Z,0
2019-04-16T00:10:48.750Z,0
2019-04-16T00:11:29.166Z,0
2019-04-16T00:12:09.532Z,0
2019-04-16T00:12:49.945Z,0
2019-04-16T00:13:30.323Z,0
2019-04-16T00:14:10.762Z,0
2019-04-16T00:14:53.237Z,0
2019-04-16T00:15:33.676Z,0
2019-04-16T00:16:14.054Z,0
2019-04-16T00:16:55.328Z,0
2019-04-16T00:17:35.691Z,0
2019-04-16T00:18:18.580Z,0
2019-04-16T00:19:04.125Z,0
2019-04-16T00:19:39.382Z,0
2019-04-16T00:20:19.788Z,0
2019-04-16T00:21:00.333Z,0
2019-04-16T00:21:41.132Z,0
2019-04-16T00:22:20.964Z,0
2019-04-16T00:23:01.880Z,0
2019-04-16T00:23:42.393Z,0
2019-04-16T00:24:22.768Z,0
2019-04-16T00:25:03.249Z,0
2019-04-16T00:25:43.663Z,0
2019-04-16T00:28:01.469Z,0
2019-04-16T00:28:41.776Z,0
2019-04-16T00:29:22.196Z,0
2019-04-16T00:30:04.840Z,0
2019-04-16T00:30:43.709Z,0
2019-04-16T00:31:24.109Z,0
2019-04-16T00:32:07.778Z,0
2019-04-16T00:32:44.895Z,0
2019-04-16T00:33:25.423Z,0
2019-04-16T00:34:05.867Z,0
2019-04-16T00:34:46.252Z,0
2019-04-16T00:35:26.669Z,0
2019-04-16T00:36:07.088Z,0
2019-04-16T00:36:48.656Z,0
2019-04-16T00:37:27.926Z,0
2019-04-16T00:38:08.317Z,0
2019-04-16T00:38:51.454Z,0
2019-04-16T00:39:29.125Z,0
2019-04-16T00:40:09.528Z,0
2019-04-16T00:40:50.498Z,0
2019-04-16T00:41:30.369Z,0
2019-04-16T00:42:10.782Z,0
2019-04-16T00:42:51.267Z,0
2019-04-16T00:43:31.623Z,0
2019-04-16T00:44:12.039Z,0
2019-04-16T00:44:53.032Z,0
2019-04-16T00:45:33.419Z,0
2019-04-16T00:46:15.342Z,0
2019-04-16T00:46:57.371Z,0
2019-04-16T00:47:37.788Z,0
2019-04-16T00:48:18.195Z,0
2019-04-16T00:48:58.573Z,0
2019-04-16T00:49:38.957Z,0
2019-04-16T00:50:19.386Z,0
2019-04-16T00:50:59.880Z,0
2019-04-16T00:51:40.147Z,0
2019-04-16T00:52:20.544Z,0
2019-04-16T00:53:01.001Z,0
2019-04-16T00:53:41.380Z,0
2019-04-16T00:54:21.778Z,0
2019-04-16T00:55:02.178Z,0
2019-04-16T00:55:45.010Z,0
2019-04-16T00:56:23.030Z,0
2019-04-16T00:57:03.409Z,0
2019-04-16T00:57:48.349Z,0
2019-04-16T00:58:24.252Z,0
2019-04-16T00:59:04.664Z,0
2019-04-16T00:59:45.066Z,0
2019-04-16T01:00:27.602Z,0
2019-04-16T01:01:05.927Z,0
2019-04-16T01:01:46.318Z,0
2019-04-16T01:02:26.751Z,0
2019-04-16T01:03:07.541Z,0
2019-04-16T01:03:47.485Z,0
2019-04-16T01:04:27.891Z,0
2019-04-16T01:05:08.333Z,0
2019-04-16T01:05:48.777Z,0
2019-04-16T01:06:29.137Z,0
2019-04-16T01:07:09.541Z,0
2019-04-16T01:07:49.930Z,0
2019-04-16T01:08:30.316Z,0
2019-04-16T01:09:10.718Z,0
2019-04-16T01:09:51.101Z,0
2019-04-16T01:10:31.480Z,0
2019-04-16T01:11:11.885Z,0
2019-04-16T01:11:52.348Z,0
2019-04-16T01:12:32.713Z,0
2019-04-16T01:13:13.108Z,0
2019-04-16T01:13:55.604Z,0
2019-04-16T01:14:33.914Z,0
2019-04-16T01:15:14.291Z,0
2019-04-16T01:15:54.792Z,0
2019-04-16T01:16:35.090Z,0
2019-04-16T01:17:15.524Z,0
2019-04-16T01:17:55.926Z,0
2019-04-16T01:18:38.682Z,0
2019-04-16T01:19:16.698Z,0
2019-04-16T01:19:57.116Z,0
2019-04-16T01:20:37.555Z,0
2019-04-16T01:21:18.091Z,0
2019-04-16T01:21:58.445Z,0
2019-04-16T01:22:38.807Z,0
2019-04-16T01:23:19.190Z,0
2019-04-16T01:23:59.609Z,0
2019-04-16T01:24:39.993Z,0
2019-04-16T01:25:23.196Z,0
2019-04-16T01:26:00.804Z,0
2019-04-16T01:26:42.913Z,0
2019-04-16T01:27:23.263Z,0
2019-04-16T01:28:03.661Z,0
2019-04-16T01:28:44.055Z,0
2019-04-16T01:29:24.753Z,0
2019-04-16T01:30:06.342Z,0
2019-04-16T01:30:45.358Z,0
2019-04-16T01:31:25.759Z,0
2019-04-16T01:32:09.713Z,0
2019-04-16T01:32:48.623Z,0
2019-04-16T01:33:29.028Z,0
2019-04-16T01:34:09.473Z,0
2019-04-16T01:34:49.871Z,0
2019-04-16T01:35:30.232Z,0
2019-04-16T01:36:10.615Z,0
2019-04-16T01:36:51.327Z,0
2019-04-16T01:37:31.449Z,0
2019-04-16T01:38:11.853Z,0
2019-04-16T01:38:52.241Z,0
2019-04-16T01:39:32.655Z,0
2019-04-16T01:40:13.050Z,0
2019-04-16T01:40:53.425Z,0
2019-04-16T01:41:33.860Z,0
2019-04-16T01:42:14.323Z,0
2019-04-16T01:42:55.308Z,0
2019-04-16T01:43:35.286Z,0
2019-04-16T01:44:15.709Z,0
2019-04-16T01:44:59.315Z,0
2019-04-16T01:45:36.568Z,0
2019-04-16T01:46:17.005Z,0
2019-04-16T01:46:57.373Z,0
2019-04-16T01:47:39.934Z,0
2019-04-16T01:48:21.055Z,0
2019-04-16T01:49:01.477Z,0
2019-04-16T01:49:43.385Z,0
2019-04-16T01:50:23.870Z,0
2019-04-16T01:51:04.201Z,0
2019-04-16T01:53:42.525Z,0
2019-04-16T01:54:23.470Z,0
2019-04-16T01:55:03.231Z,0
2019-04-16T01:55:43.638Z,0
2019-04-16T01:56:27.665Z,0
2019-04-16T01:57:04.678Z,0
2019-04-16T01:57:44.902Z,0
2019-04-16T01:58:25.306Z,0
2019-04-16T01:59:06.155Z,0
2019-04-16T01:59:46.148Z,0
2019-04-16T02:00:26.507Z,0
2019-04-16T02:01:08.003Z,0
2019-04-16T02:01:48.574Z,0
2019-04-16T02:02:30.518Z,0
2019-04-16T02:03:10.903Z,0
2019-04-16T02:03:51.341Z,0
2019-04-16T02:04:31.770Z,0
2019-04-16T02:05:12.141Z,0
2019-04-16T02:05:54.816Z,0
2019-04-16T02:06:32.949Z,0
2019-04-16T02:07:13.334Z,0
2019-04-16T02:07:56.309Z,0
2019-04-16T02:08:34.209Z,0
2019-04-16T02:09:22.231Z,0
2019-04-16T02:09:55.011Z,0
2019-04-16T02:10:38.300Z,0
2019-04-16T02:11:15.793Z,0
2019-04-16T02:11:56.326Z,0
2019-04-16T02:12:36.575Z,0
2019-04-16T02:13:16.995Z,0
2019-04-16T02:13:57.418Z,0
2019-04-16T02:14:37.987Z,0
2019-04-16T02:15:21.560Z,0
2019-04-16T02:15:58.659Z,0
2019-04-16T02:16:39.055Z,0
2019-04-16T02:17:19.448Z,0
2019-04-16T02:18:00.238Z,0
2019-04-16T02:18:40.529Z,0
2019-04-16T02:19:20.785Z,0
2019-04-16T02:20:05.470Z,0
2019-04-16T02:20:42.258Z,0
2019-04-16T02:21:22.667Z,0
2019-04-16T02:22:03.248Z,0
2019-04-16T02:22:45.049Z,0
2019-04-16T02:23:23.990Z,0
2019-04-16T02:24:04.385Z,0
2019-04-16T02:24:47.762Z,0
2019-04-16T02:25:25.157Z,0
2019-04-16T02:26:05.533Z,0
2019-04-16T02:26:45.935Z,0
2019-04-16T02:27:27.054Z,0
2019-04-16T02:28:06.715Z,0
2019-04-16T02:28:47.116Z,0
2019-04-16T02:29:30.464Z,0
2019-04-16T02:30:07.964Z,0
2019-04-16T02:30:48.294Z,0
2019-04-16T02:31:28.720Z,0
2019-04-16T02:32:09.121Z,0
2019-04-16T02:32:49.535Z,0
2019-04-16T02:33:29.890Z,0
2019-04-16T02:34:10.288Z,0
2019-04-16T02:34:50.657Z,0
2019-04-16T02:35:31.048Z,0
2019-04-16T02:36:11.475Z,0
2019-04-16T02:36:51.873Z,0
2019-04-16T02:37:36.153Z,0
2019-04-16T02:38:13.784Z,0
2019-04-16T02:38:53.721Z,0
2019-04-16T02:39:47.461Z,0
2019-04-16T02:40:18.252Z,0
2019-04-16T02:40:54.270Z,0
2019-04-16T02:41:34.685Z,0
2019-04-16T02:42:15.057Z,0
2019-04-16T02:42:55.499Z,0
2019-04-16T02:43:40.821Z,0
2019-04-16T02:44:17.140Z,0
2019-04-16T02:44:56.721Z,0
2019-04-16T02:45:37.130Z,0
2019-04-16T02:46:17.529Z,0
2019-04-16T02:47:04.516Z,0
2019-04-16T02:47:41.549Z,0
2019-04-16T02:48:18.820Z,0
2019-04-16T02:48:59.227Z,0
2019-04-16T02:49:39.630Z,0
2019-04-16T02:50:20.076Z,0
2019-04-16T02:51:05.042Z,0
2019-04-16T02:51:41.683Z,0
2019-04-16T02:52:21.264Z,0
2019-04-16T02:53:01.656Z,0
2019-04-16T02:53:42.053Z,0
2019-04-16T02:54:22.417Z,0
2019-04-16T02:55:06.914Z,0
2019-04-16T02:55:44.301Z,0
2019-04-16T02:56:23.744Z,0
2019-04-16T02:57:04.492Z,0
2019-04-16T02:57:44.555Z,0
2019-04-16T02:58:24.953Z,0
2019-04-16T02:59:11.489Z,0
2019-04-16T02:59:47.190Z,0
2019-04-16T03:00:26.134Z,0
2019-04-16T03:01:06.526Z,0
2019-04-16T03:01:49.316Z,0
2019-04-16T03:02:27.317Z,0
2019-04-16T03:03:07.709Z,0
2019-04-16T03:03:48.161Z,0
2019-04-16T03:04:28.596Z,0
2019-04-16T03:05:08.994Z,0
2019-04-16T03:05:49.375Z,0
2019-04-16T03:06:31.860Z,0
2019-04-16T03:07:10.210Z,0
2019-04-16T03:07:50.617Z,0
2019-04-16T03:08:33.349Z,0
2019-04-16T03:09:11.467Z,0
2019-04-16T03:10:00.941Z,0
2019-04-16T03:10:32.336Z,0
2019-04-16T03:11:13.713Z,0
2019-04-16T03:11:54.058Z,0
2019-04-16T03:12:34.396Z,0
2019-04-16T03:13:14.772Z,0
2019-04-16T03:13:58.169Z,0
2019-04-16T03:14:35.628Z,0
2019-04-16T03:15:16.014Z,0
2019-04-16T03:15:56.459Z,0
2019-04-16T03:16:37.876Z,0
2019-04-16T03:17:17.265Z,0
2019-04-16T03:17:57.678Z,0
2019-04-16T03:18:38.095Z,0
2019-04-16T03:19:20.179Z,0
2019-04-16T03:19:58.954Z,0
2019-04-16T03:20:39.316Z,0
2019-04-16T03:21:19.751Z,0
2019-04-16T03:22:01.965Z,0
2019-04-16T03:22:40.603Z,0
2019-04-16T03:23:20.973Z,0
2019-04-16T03:24:01.373Z,0
2019-04-16T03:24:41.772Z,0
2019-04-16T03:25:22.207Z,0
2019-04-16T03:26:02.700Z,0
2019-04-16T03:26:44.292Z,0
2019-04-16T03:27:23.446Z,0
2019-04-16T03:28:03.788Z,0
2019-04-16T03:28:44.187Z,0
2019-04-16T03:29:24.620Z,0
2019-04-16T03:30:05.855Z,0
2019-04-16T03:30:45.434Z,0
2019-04-16T03:31:25.832Z,0
2019-04-16T03:32:06.319Z,0
2019-04-16T03:32:46.656Z,0
2019-04-16T03:33:27.066Z,0
2019-04-16T03:34:07.468Z,0
2019-04-16T03:34:50.456Z,0
2019-04-16T03:35:28.279Z,0
2019-04-16T03:36:08.690Z,0
2019-04-16T03:36:49.115Z,0
2019-04-16T03:37:30.207Z,0
2019-04-16T03:38:09.930Z,0
2019-04-16T03:38:50.338Z,0
2019-04-16T03:39:30.771Z,0
2019-04-16T03:40:16.818Z,0
2019-04-16T03:40:55.844Z,0
2019-04-16T03:41:31.962Z,0
2019-04-16T03:42:12.407Z,0
2019-04-16T03:42:52.823Z,0
2019-04-16T03:43:33.235Z,0
2019-04-16T03:44:13.657Z,0
2019-04-16T03:44:54.076Z,0
2019-04-16T03:45:34.501Z,0
2019-04-16T03:46:14.903Z,0
2019-04-16T03:46:55.341Z,0
2019-04-16T03:47:35.717Z,0
2019-04-16T03:48:16.221Z,0
2019-04-16T03:48:56.579Z,0
2019-04-16T03:49:36.934Z,0
2019-04-16T03:50:17.357Z,0
2019-04-16T03:51:00.418Z,0
2019-04-16T03:51:38.180Z,0
2019-04-16T03:52:18.591Z,0
2019-04-16T03:52:58.902Z,0
2019-04-16T03:53:39.288Z,0
2019-04-16T03:54:22.277Z,0
2019-04-16T03:55:00.107Z,0
2019-04-16T03:55:40.438Z,0
2019-04-16T03:56:20.890Z,0
2019-04-16T03:57:02.043Z,0
2019-04-16T03:57:41.662Z,0
2019-04-16T03:58:22.049Z,0
2019-04-16T03:59:02.443Z,0
2019-04-16T03:59:42.999Z,0
2019-04-16T04:00:23.420Z,0
2019-04-16T04:01:03.813Z,0
2019-04-16T04:01:46.009Z,0
2019-04-16T04:02:24.558Z,0
2019-04-16T04:03:04.976Z,0
2019-04-16T04:03:45.359Z,0
2019-04-16T04:04:28.868Z,0
2019-04-16T04:05:07.302Z,0
2019-04-16T04:05:46.764Z,0
2019-04-16T04:06:27.156Z,0
2019-04-16T04:07:08.688Z,0
2019-04-16T04:07:48.354Z,0
2019-04-16T04:08:28.689Z,0
2019-04-16T04:09:09.065Z,0
2019-04-16T04:09:51.439Z,0
2019-04-16T04:10:31.258Z,0
2019-04-16T04:11:10.784Z,0
2019-04-16T04:11:50.664Z,0
2019-04-16T04:12:31.116Z,0
2019-04-16T04:13:17.221Z,0
2019-04-16T04:13:52.623Z,0
2019-04-16T04:14:33.075Z,0
2019-04-16T04:15:13.465Z,0
2019-04-16T04:15:55.077Z,0
2019-04-16T04:16:34.461Z,0
2019-04-16T04:17:14.687Z,0
2019-04-16T04:17:55.033Z,0
2019-04-16T04:18:35.439Z,0
2019-04-16T04:22:09.688Z,0
2019-04-16T04:23:04.234Z,0
2019-04-16T04:24:00.599Z,0
2019-04-16T05:06:30.409Z,35
2019-04-16T05:07:10.818Z,35
2019-04-16T05:07:51.255Z,35
2019-04-16T05:08:31.690Z,40
2019-04-16T05:09:14.138Z,40
2019-04-16T05:11:49.855Z,45
2019-04-16T05:12:31.302Z,50
2019-04-16T05:13:11.694Z,50
2019-04-16T05:13:53.422Z,55
2019-04-16T05:14:33.791Z,55
2019-04-16T05:15:14.289Z,60
2019-04-16T05:15:54.602Z,60
2019-04-16T05:16:35.150Z,65
2019-04-16T05:17:15.421Z,70
2019-04-16T05:17:56.976Z,70
2019-04-16T05:20:29.797Z,85
2019-04-16T05:21:09.087Z,90
2019-04-16T05:21:50.597Z,105
2019-04-16T05:22:32.799Z,145
2019-04-16T05:23:10.262Z,190
2019-04-16T05:23:50.662Z,220
2019-04-16T05:24:31.096Z,230
2019-04-16T05:25:11.495Z,235
2019-04-16T05:25:51.918Z,250
2019-04-16T05:26:36.443Z,250
2019-04-16T05:27:14.178Z,235
2019-04-16T05:27:58.678Z,230
2019-04-16T05:28:44.258Z,225
2019-04-16T05:29:22.272Z,230
2019-04-16T05:30:03.184Z,225
2019-04-16T05:30:43.840Z,230
2019-04-16T05:31:26.272Z,225
2019-04-16T05:32:08.832Z,235
2019-04-16T05:32:50.934Z,235
2019-04-16T05:33:34.433Z,240
2019-04-16T05:34:13.045Z,240
2019-04-16T05:34:54.099Z,245
2019-04-16T05:35:35.678Z,250
2019-04-16T05:36:15.763Z,260
2019-04-16T05:36:58.021Z,260
2019-04-16T05:37:39.817Z,270
2019-04-16T05:38:24.773Z,285
2019-04-16T05:39:05.116Z,300
2019-04-16T05:44:45.160Z,330
2019-04-16T05:45:25.557Z,355
2019-04-16T05:47:55.624Z,375
2019-04-16T05:48:37.029Z,385
2019-04-16T05:49:18.610Z,395
2019-04-16T05:49:59.268Z,405
2019-04-16T05:50:39.778Z,415
2019-04-16T05:51:20.330Z,420
2019-04-16T05:52:03.713Z,420
2019-04-16T05:52:43.288Z,420
2019-04-16T05:53:23.738Z,415
2019-04-16T05:54:04.282Z,410
2019-04-16T05:54:45.353Z,415
2019-04-16T05:55:25.705Z,425
2019-04-16T05:56:06.135Z,425
2019-04-16T05:56:47.529Z,440
2019-04-16T05:57:28.185Z,455
2019-04-16T05:58:08.812Z,460
2019-04-16T05:58:49.089Z,465
2019-04-16T05:59:33.459Z,465
2019-04-16T06:00:10.397Z,465
2019-04-16T06:00:50.268Z,460
2019-04-16T06:01:30.986Z,475
2019-04-16T06:02:14.598Z,495
2019-04-16T06:02:53.575Z,510
2019-04-16T06:03:34.029Z,515
2019-04-16T06:04:14.815Z,515
2019-04-16T06:04:55.815Z,530
2019-04-16T06:05:36.583Z,540
2019-04-16T06:06:19.243Z,545
2019-04-16T06:13:18.230Z,630
2019-04-16T06:13:59.553Z,645
2019-04-16T06:14:42.812Z,635
2019-04-16T06:15:23.128Z,645
2019-04-16T06:16:03.556Z,665
2019-04-16T06:16:45.699Z,650
2019-04-16T06:17:31.704Z,640
2019-04-16T06:18:07.223Z,630
2019-04-16T06:18:47.994Z,645
2019-04-16T06:19:28.638Z,660
2019-04-16T06:20:08.845Z,680
2019-04-16T06:20:53.670Z,690
2019-04-16T06:21:37.049Z,710
2019-04-16T06:22:18.994Z,725
2019-04-16T06:23:00.813Z,730
2019-04-16T06:23:40.514Z,725
2019-04-16T06:24:21.711Z,730
2019-04-16T06:25:08.145Z,720
2019-04-16T06:25:42.247Z,725
2019-04-16T06:26:25.067Z,730
2019-04-16T06:27:05.522Z,700
2019-04-16T06:27:46.076Z,715
2019-04-16T06:28:29.421Z,690
2019-04-16T06:29:09.753Z,680
2019-04-16T06:29:50.513Z,670
2019-04-16T06:30:33.754Z,705
2019-04-16T06:31:11.437Z,700
2019-04-16T06:31:51.785Z,670
2019-04-16T06:32:32.400Z,730
2019-04-16T06:33:12.933Z,690
2019-04-16T06:33:53.435Z,770
2019-04-16T06:34:35.364Z,710
2019-04-16T06:35:17.244Z,790
2019-04-16T06:35:58.446Z,810
2019-04-16T06:36:40.503Z,840
2019-04-16T06:37:26.533Z,870
2019-04-16T06:38:07.340Z,895
2019-04-16T06:38:49.152Z,905
2019-04-16T06:39:30.603Z,905
2019-04-16T06:40:13.990Z,900
2019-04-16T06:42:43.074Z,905
2019-04-16T06:43:26.077Z,905
2019-04-16T06:44:04.829Z,925
2019-04-16T06:44:46.132Z,830
2019-04-16T06:45:28.579Z,600
2019-04-16T06:46:09.415Z,415
2019-04-16T06:46:51.090Z,360
2019-04-16T06:47:35.609Z,345
2019-04-16T06:48:19.788Z,340
2019-04-16T06:49:02.122Z,345
2019-04-16T06:49:42.843Z,350
2019-04-16T06:50:31.014Z,350
2019-04-16T06:51:04.494Z,345
2019-04-16T06:51:45.822Z,340
2019-04-16T06:52:26.132Z,340
2019-04-16T06:53:06.565Z,340
2019-04-16T06:53:47.169Z,345
2019-04-16T06:54:33.653Z,345
2019-04-16T06:55:14.086Z,345
2019-04-16T06:55:57.258Z,350
2019-04-16T06:56:40.243Z,350
2019-04-16T06:57:19.915Z,350
2019-04-16T06:58:00.338Z,350
2019-04-16T06:58:50.525Z,350
2019-04-16T06:59:23.170Z,350
2019-04-16T07:00:07.226Z,350
2019-04-16T07:00:46.088Z,345
2019-04-16T07:01:26.720Z,340
2019-04-16T07:02:10.494Z,335
2019-04-16T07:03:02.070Z,335
2019-04-16T07:03:32.498Z,335
2019-04-16T07:04:13.849Z,335
2019-04-16T07:04:55.457Z,330
2019-04-16T07:05:36.750Z,330
2019-04-16T07:09:40.709Z,335
2019-04-16T07:10:08.801Z,340
2019-04-16T07:10:49.524Z,340
2019-04-16T07:11:29.930Z,340
2019-04-16T07:12:16.054Z,340
2019-04-16T07:12:58.684Z,350
2019-04-16T07:13:41.858Z,345
2019-04-16T07:14:19.770Z,340
2019-04-16T07:15:00.956Z,335
2019-04-16T07:15:41.391Z,330
2019-04-16T07:18:58.661Z,320
2019-04-16T07:19:39.351Z,310
2019-04-16T07:20:22.233Z,305
2019-04-16T07:21:03.759Z,295
2019-04-16T07:21:48.626Z,285
2019-04-16T07:22:24.858Z,285
2019-04-16T07:23:05.347Z,270
2019-04-16T07:23:47.073Z,255
2019-04-16T07:24:30.516Z,235
2019-04-16T07:25:08.550Z,230
2019-04-16T07:25:53.383Z,220
2019-04-16T07:26:38.540Z,210
2019-04-16T07:27:19.415Z,210
2019-04-16T07:27:58.140Z,205
2019-04-16T07:28:38.675Z,200
2019-04-16T07:29:18.983Z,195
2019-04-16T07:30:04.578Z,190
2019-04-16T07:30:41.390Z,185
2019-04-16T07:31:33.063Z,180
2019-04-16T07:32:05.538Z,175
2019-04-16T07:32:48.006Z,175
2019-04-16T07:33:35.783Z,170
2019-04-16T07:34:18.169Z,165
2019-04-16T07:34:59.529Z,165
2019-04-16T07:35:40.424Z,160
2019-04-16T07:36:20.811Z,165
2019-04-16T07:37:02.346Z,155
2019-04-16T07:37:45.599Z,155
2019-04-16T07:38:26.555Z,150
2019-04-16T07:39:07.676Z,150
2019-04-16T07:39:48.164Z,145
2019-04-16T07:40:28.462Z,145
2019-04-16T07:41:11.821Z,140
2019-04-16T07:41:51.017Z,140
2019-04-16T07:42:33.324Z,135
2019-04-16T07:43:15.776Z,135
2019-04-16T07:43:55.614Z,135
2019-04-16T07:44:39.207Z,130
2019-04-16T07:45:19.590Z,130
2019-04-16T07:46:00.091Z,130
2019-04-16T07:46:40.443Z,130
2019-04-16T07:47:21.074Z,125
2019-04-16T07:48:07.251Z,120
2019-04-16T07:48:47.692Z,120
2019-04-16T07:49:28.022Z,120
2019-04-16T07:50:08.439Z,120
2019-04-16T07:50:52.827Z,120
2019-04-16T07:51:35.735Z,120
2019-04-16T07:52:13.196Z,115
2019-04-16T07:52:53.680Z,115
2019-04-16T07:53:34.045Z,115
2019-04-16T07:54:15.472Z,115
2019-04-16T07:55:00.971Z,115
2019-04-16T07:55:42.869Z,120
2019-04-16T07:56:23.297Z,120
2019-04-16T07:57:05.675Z,120
2019-04-16T07:57:46.992Z,120
2019-04-16T07:58:31.431Z,120
2019-04-16T07:59:11.906Z,120
2019-04-16T07:59:52.488Z,120
2019-04-16T08:00:32.976Z,120
2019-04-16T08:01:16.429Z,120
2019-04-16T08:01:57.831Z,120
2019-04-16T08:02:39.783Z,120
2019-04-16T08:03:20.303Z,120
2019-04-16T08:04:02.599Z,120
2019-04-16T08:04:42.280Z,120
2019-04-16T08:05:30.274Z,120
2019-04-16T08:06:14.251Z,120
2019-04-16T08:06:51.343Z,120
2019-04-16T08:07:32.680Z,120
2019-04-16T08:08:14.035Z,120
2019-04-16T08:08:56.794Z,120
2019-04-16T08:09:34.680Z,120
2019-04-16T08:10:16.835Z,115
2019-04-16T08:10:56.592Z,120
2019-04-16T08:11:37.888Z,110
2019-04-16T08:12:29.766Z,110
2019-04-16T08:13:00.445Z,110
2019-04-16T08:13:40.678Z,105
2019-04-16T08:14:21.077Z,110
2019-04-16T08:15:12.319Z,120
2019-04-16T08:15:43.163Z,120
2019-04-16T08:16:23.467Z,120
2019-04-16T08:17:05.969Z,125
2019-04-16T08:17:47.479Z,125
2019-04-16T08:18:27.769Z,125
2019-04-16T08:19:08.194Z,125
2019-04-16T08:19:49.354Z,125
2019-04-16T08:20:29.613Z,125
2019-04-16T08:21:13.091Z,125
2019-04-16T08:21:53.587Z,125
2019-04-16T08:22:35.521Z,125
2019-04-16T08:26:45.020Z,115
2019-04-16T08:27:22.695Z,115
2019-04-16T08:28:06.428Z,115
2019-04-16T08:28:43.719Z,115
2019-04-16T08:29:29.676Z,110
2019-04-16T08:30:13.795Z,110
2019-04-16T08:30:54.400Z,110
2019-04-16T08:31:34.826Z,115
2019-04-16T08:32:15.902Z,110
2019-04-16T08:32:57.938Z,110
2019-04-16T08:33:38.135Z,110
2019-04-16T08:34:20.448Z,105
2019-04-16T08:35:00.831Z,105
2019-04-16T08:35:41.228Z,105
2019-04-16T08:36:21.644Z,105
2019-04-16T08:37:08.025Z,105
2019-04-16T08:37:49.633Z,105
2019-04-16T08:38:35.009Z,105
2019-04-16T08:39:15.484Z,105
2019-04-16T08:39:55.679Z,105
2019-04-16T08:40:37.679Z,105
2019-04-16T08:41:21.634Z,100
2019-04-16T08:42:02.933Z,100
2019-04-16T08:42:45.058Z,100
2019-04-16T08:43:29.517Z,100
2019-04-16T08:44:10.789Z,95
2019-04-16T08:44:50.945Z,95
2019-04-16T08:45:32.059Z,95
2019-04-16T08:46:15.182Z,95
2019-04-16T08:46:58.351Z,95
2019-04-16T08:47:44.284Z,90
2019-04-16T08:48:20.335Z,90
2019-04-16T08:49:02.661Z,90
2019-04-16T08:49:43.131Z,90
2019-04-16T08:50:26.743Z,85
2019-04-16T08:51:06.428Z,85
2019-04-16T08:51:46.640Z,85
2019-04-16T08:52:27.128Z,85
2019-04-16T08:53:07.902Z,85
2019-04-16T08:53:48.572Z,85
2019-04-16T08:54:29.273Z,85
2019-04-16T08:55:13.704Z,80
2019-04-16T08:55:54.099Z,80
2019-04-16T08:56:34.664Z,80
2019-04-16T08:57:15.237Z,80
2019-04-16T08:57:55.962Z,80
2019-04-16T08:58:38.338Z,80
2019-04-16T08:59:17.945Z,80
2019-04-16T09:00:00.304Z,80
2019-04-16T09:00:40.373Z,80
2019-04-16T09:01:23.491Z,80
2019-04-16T09:02:03.733Z,80
2019-04-16T09:02:45.416Z,80
2019-04-16T09:03:26.755Z,80
2019-04-16T09:04:07.264Z,80
2019-04-16T09:04:52.727Z,80
2019-04-16T09:05:33.233Z,80
2019-04-16T09:06:14.268Z,80
2019-04-16T09:06:54.222Z,80
2019-04-16T09:07:39.715Z,80
2019-04-16T09:08:22.035Z,80
2019-04-16T09:09:12.201Z,80
2019-04-16T09:09:43.127Z,80
2019-04-16T09:10:24.223Z,80
2019-04-16T09:11:05.776Z,80
2019-04-16T09:11:48.551Z,80
2019-04-16T09:12:32.608Z,80
2019-04-16T09:13:15.156Z,80
2019-04-16T09:13:55.510Z,80
2019-04-16T09:14:38.719Z,75
2019-04-16T09:15:27.210Z,75
2019-04-16T09:16:06.724Z,75
2019-04-16T09:16:47.275Z,75
2019-04-16T09:17:28.103Z,75
2019-04-16T09:18:08.595Z,75
2019-04-16T09:18:49.066Z,75
2019-04-16T09:19:31.182Z,75
2019-04-16T09:20:11.639Z,75
2019-04-16T09:20:52.102Z,75
2019-04-16T09:21:32.590Z,80
2019-04-16T09:22:16.739Z,75
2019-04-16T09:22:58.876Z,75
2019-04-16T09:23:37.654Z,75
2019-04-16T09:27:28.300Z,75
2019-04-16T09:28:08.099Z,75
2019-04-16T09:28:46.766Z,75
2019-04-16T09:29:27.277Z,75
2019-04-16T09:30:10.149Z,75
2019-04-16T09:30:49.666Z,75
2019-04-16T09:31:29.576Z,75
2019-04-16T09:32:10.313Z,75
2019-04-16T09:32:51.346Z,75
2019-04-16T09:33:33.450Z,75
2019-04-16T09:34:12.247Z,75
2019-04-16T09:34:52.670Z,75
2019-04-16T09:35:33.076Z,75
2019-04-16T09:36:13.728Z,75
2019-04-16T09:36:53.968Z,75
2019-04-16T09:37:35.837Z,75
2019-04-16T09:38:14.731Z,75
2019-04-16T09:38:55.122Z,75
2019-04-16T09:39:35.610Z,75
2019-04-16T09:40:18.359Z,75
2019-04-16T09:40:56.493Z,75
2019-04-16T09:41:37.309Z,75
2019-04-16T09:42:17.832Z,75
2019-04-16T09:42:58.142Z,75
2019-04-16T09:43:40.249Z,75
2019-04-16T09:44:19.113Z,75
2019-04-16T09:45:01.666Z,75
2019-04-16T09:45:40.230Z,75
2019-04-16T09:46:26.666Z,75
2019-04-16T09:47:00.973Z,75
2019-04-16T09:47:41.374Z,75
2019-04-16T09:48:21.789Z,75
2019-04-16T09:49:04.660Z,75
2019-04-16T09:49:43.076Z,75
2019-04-16T09:50:23.442Z,75
2019-04-16T09:51:03.868Z,75
2019-04-16T09:51:44.949Z,75
2019-04-16T09:52:25.366Z,75
2019-04-16T09:53:05.876Z,75
2019-04-16T09:53:46.259Z,75
2019-04-16T09:54:28.202Z,75
2019-04-16T09:55:08.515Z,75
2019-04-16T09:55:50.541Z,75
2019-04-16T09:56:30.264Z,75
2019-04-16T09:57:10.114Z,75
2019-04-16T09:57:50.475Z,75
2019-04-16T09:58:30.990Z,75
2019-04-16T09:59:15.666Z,75
2019-04-16T09:59:51.854Z,75
2019-04-16T10:00:32.288Z,75
2019-04-16T10:01:12.716Z,75
2019-04-16T10:01:53.091Z,75
2019-04-16T10:02:33.882Z,75
2019-04-16T10:03:14.674Z,75
2019-04-16T10:03:55.626Z,75
2019-04-16T10:04:36.073Z,75
2019-04-16T10:05:16.999Z,75
2019-04-16T10:05:57.641Z,75
2019-04-16T10:06:38.489Z,75
2019-04-16T10:07:18.547Z,70
2019-04-16T10:07:59.091Z,70
2019-04-16T10:08:44.273Z,70
2019-04-16T10:09:22.041Z,70
2019-04-16T10:10:00.893Z,70
2019-04-16T10:10:41.625Z,70
2019-04-16T10:11:22.022Z,70
2019-04-16T10:12:04.898Z,70
2019-04-16T10:12:43.161Z,70
2019-04-16T10:13:30.628Z,70
2019-04-16T10:14:04.003Z,70
2019-04-16T10:14:44.448Z,70
2019-04-16T10:15:24.875Z,70
2019-04-16T10:16:05.533Z,70
2019-04-16T10:16:45.842Z,70
2019-04-16T10:17:26.242Z,70
2019-04-16T10:18:06.788Z,70
2019-04-16T10:18:47.158Z,70
2019-04-16T10:19:27.512Z,70
2019-04-16T10:20:08.080Z,70
2019-04-16T10:20:48.552Z,70
2019-04-16T10:21:29.389Z,70
2019-04-16T10:22:09.583Z,70
2019-04-16T10:22:50.201Z,70
2019-04-16T10:23:30.640Z,70
2019-04-16T10:24:13.104Z,70
2019-04-16T10:24:51.562Z,70
2019-04-16T10:25:33.543Z,70
2019-04-16T10:26:14.323Z,70
2019-04-16T10:26:54.876Z,70
2019-04-16T10:27:34.254Z,70
2019-04-16T10:28:14.780Z,70
2019-04-16T10:28:57.234Z,70
2019-04-16T11:08:23.915Z,60
2019-04-16T11:09:07.128Z,60
2019-04-16T11:09:49.478Z,60
2019-04-16T11:10:31.292Z,60
2019-04-16T11:11:11.787Z,60
2019-04-16T11:11:52.444Z,60
2019-04-16T11:12:33.143Z,60
2019-04-16T11:13:13.321Z,60
2019-04-16T11:13:59.948Z,60
2019-04-16T11:14:35.448Z,60
2019-04-16T11:15:16.168Z,60
2019-04-16T11:15:58.271Z,60
2019-04-16T11:16:38.729Z,60
2019-04-16T11:17:20.821Z,60
2019-04-16T11:18:01.239Z,60
2019-04-16T11:18:41.650Z,60
2019-04-16T11:19:23.711Z,60
2019-04-16T11:20:04.192Z,60
2019-04-16T11:20:46.651Z,60
2019-04-16T11:21:27.828Z,60
2019-04-16T11:22:08.764Z,60
2019-04-16T11:22:50.890Z,60
2019-04-16T11:23:31.336Z,60
2019-04-16T11:24:15.713Z,60
2019-04-16T11:24:55.039Z,60
2019-04-16T11:25:35.706Z,60
2019-04-16T11:26:15.969Z,60
2019-04-16T11:26:56.373Z,60
2019-04-16T11:27:36.831Z,60
2019-04-16T11:28:17.337Z,60
2019-04-16T11:28:57.692Z,60
2019-04-16T11:29:41.915Z,60
2019-04-16T11:30:19.560Z,60
2019-04-16T11:30:59.869Z,60
2019-04-16T11:31:40.306Z,60
2019-04-16T11:32:20.711Z,60
2019-04-16T11:33:01.209Z,60
2019-04-16T11:33:41.670Z,60
2019-04-16T11:34:22.270Z,60
2019-04-16T11:35:02.986Z,60
2019-04-16T11:35:42.960Z,60
2019-04-16T11:36:23.385Z,55
2019-04-16T11:37:08.036Z,55
2019-04-16T11:37:46.840Z,55
2019-04-16T11:38:27.293Z,55
2019-04-16T11:39:07.903Z,55
2019-04-16T11:39:48.482Z,55
2019-04-16T11:40:29.377Z,55
2019-04-16T11:41:12.476Z,55
2019-04-16T11:41:52.893Z,55
2019-04-16T11:42:35.650Z,55
2019-04-16T11:43:18.946Z,55
2019-04-16T11:44:13.479Z,55
2019-04-16T11:44:39.923Z,55